Terminal Aerodrome Forecast
Issued by NWS

Home | Current Version | Previous Version | Text Only | Print | Product List | Glossary Off
Versions: 1 2 3 4 5 6 7 8 9 10 11 12 13 14 15 16 17 18 19 20 21 22 23 24

000
FTUS43 KLOT 220530
TAFGYY
TAF
KGYY 220530Z 2206/2306 19008KT 5SM -SHRA VCTS BKN035CB BKN080
      TEMPO 2206/2210 2SM TSRA SCT015 BKN025CB
     FM221100 23007KT P6SM SCT035 BKN080
     FM221800 01008KT P6SM SCT040
     FM230300 VRB04KT P6SM FEW250=

USA.gov is the U.S. government's official web portal to all federal, state and local government web resources and services.